sensor_id;sensor_type;location;lat;lon;timestamp;temperature;humidity
3402;DHT22;1714;49.756;8.610;2024-03-23T01:02:46;11.60;1.00
3402;DHT22;1714;49.756;8.610;2024-03-23T01:13:20;11.80;1.00
3402;DHT22;1714;49.756;8.610;2024-03-23T01:23:55;11.80;1.00
3402;DHT22;1714;49.756;8.610;2024-03-23T01:34:29;11.90;1.00
3402;DHT22;1714;49.756;8.610;2024-03-23T01:45:07;11.90;1.00
3402;DHT22;1714;49.756;8.610;2024-03-23T01:55:42;11.70;1.00
3402;DHT22;1714;49.756;8.610;2024-03-23T02:06:16;11.40;1.00
3402;DHT22;1714;49.756;8.610;2024-03-23T02:16:49;11.40;1.00
3402;DHT22;1714;49.756;8.610;2024-03-23T02:27:24;11.10;1.00
3402;DHT22;1714;49.756;8.610;2024-03-23T02:37:58;11.20;1.00
3402;DHT22;1714;49.756;8.610;2024-03-23T02:48:32;11.00;1.00
3402;DHT22;1714;49.756;8.610;2024-03-23T02:59:07;11.00;1.00
3402;DHT22;1714;49.756;8.610;2024-03-23T03:09:40;10.90;1.00
3402;DHT22;1714;49.756;8.610;2024-03-23T03:20:14;10.90;1.00
3402;DHT22;1714;49.756;8.610;2024-03-23T03:30:49;11.00;1.00
3402;DHT22;1714;49.756;8.610;2024-03-23T03:41:23;11.00;1.00
3402;DHT22;1714;49.756;8.610;2024-03-23T03:51:56;11.00;1.00
3402;DHT22;1714;49.756;8.610;2024-03-23T04:02:30;11.30;1.00
3402;DHT22;1714;49.756;8.610;2024-03-23T04:13:04;11.20;1.00
3402;DHT22;1714;49.756;8.610;2024-03-23T04:23:38;11.20;1.00
3402;DHT22;1714;49.756;8.610;2024-03-23T04:34:13;11.30;1.00
3402;DHT22;1714;49.756;8.610;2024-03-23T04:44:46;11.30;1.00
3402;DHT22;1714;49.756;8.610;2024-03-23T04:55:20;11.20;1.00
3402;DHT22;1714;49.756;8.610;2024-03-23T05:05:55;10.30;1.00
3402;DHT22;1714;49.756;8.610;2024-03-23T05:16:29;10.00;1.00
3402;DHT22;1714;49.756;8.610;2024-03-23T05:27:03;9.70;1.00
3402;DHT22;1714;49.756;8.610;2024-03-23T05:37:37;9.60;1.00
3402;DHT22;1714;49.756;8.610;2024-03-23T05:48:11;9.10;1.00
3402;DHT22;1714;49.756;8.610;2024-03-23T05:58:45;8.70;1.00
3402;DHT22;1714;49.756;8.610;2024-03-23T06:09:20;8.40;1.00
3402;DHT22;1714;49.756;8.610;2024-03-23T06:19:53;8.40;1.00
3402;DHT22;1714;49.756;8.610;2024-03-23T06:30:27;8.30;1.00
3402;DHT22;1714;49.756;8.610;2024-03-23T06:41:05;8.20;1.00
3402;DHT22;1714;49.756;8.610;2024-03-23T06:51:40;7.90;1.00
3402;DHT22;1714;49.756;8.610;2024-03-23T07:02:14;7.90;1.00
3402;DHT22;1714;49.756;8.610;2024-03-23T07:12:49;8.20;1.00
3402;DHT22;1714;49.756;8.610;2024-03-23T07:23:26;8.20;1.00
3402;DHT22;1714;49.756;8.610;2024-03-23T07:34:00;7.90;1.00
3402;DHT22;1714;49.756;8.610;2024-03-23T07:44:33;8.20;1.00
3402;DHT22;1714;49.756;8.610;2024-03-23T07:55:07;8.30;1.00
3402;DHT22;1714;49.756;8.610;2024-03-23T08:05:41;8.10;1.00
3402;DHT22;1714;49.756;8.610;2024-03-23T08:16:15;8.20;1.00
3402;DHT22;1714;49.756;8.610;2024-03-23T08:26:49;8.20;1.00
3402;DHT22;1714;49.756;8.610;2024-03-23T08:37:22;8.10;1.00
3402;DHT22;1714;49.756;8.610;2024-03-23T08:47:58;8.10;1.00
3402;DHT22;1714;49.756;8.610;2024-03-23T08:58:35;8.40;1.00
3402;DHT22;1714;49.756;8.610;2024-03-23T09:09:09;8.70;1.00
3402;DHT22;1714;49.756;8.610;2024-03-23T09:19:43;9.20;1.00
3402;DHT22;1714;49.756;8.610;2024-03-23T09:30:17;8.90;1.00
3402;DHT22;1714;49.756;8.610;2024-03-23T09:40:53;9.40;1.00
3402;DHT22;1714;49.756;8.610;2024-03-23T09:51:27;9.50;1.00
3402;DHT22;1714;49.756;8.610;2024-03-23T10:02:04;9.90;1.00
3402;DHT22;1714;49.756;8.610;2024-03-23T10:12:47;10.10;1.00
3402;DHT22;1714;49.756;8.610;2024-03-23T10:23:24;9.50;1.00
3402;DHT22;1714;49.756;8.610;2024-03-23T10:33:58;10.20;1.00
3402;DHT22;1714;49.756;8.610;2024-03-23T10:44:32;10.30;1.00
3402;DHT22;1714;49.756;8.610;2024-03-23T10:55:07;9.80;1.00
3402;DHT22;1714;49.756;8.610;2024-03-23T11:05:49;9.50;1.00
3402;DHT22;1714;49.756;8.610;2024-03-23T11:16:27;8.60;1.00
3402;DHT22;1714;49.756;8.610;2024-03-23T11:27:16;8.10;1.00
3402;DHT22;1714;49.756;8.610;2024-03-23T11:38:22;8.80;1.00
3402;DHT22;1714;49.756;8.610;2024-03-23T11:48:55;9.50;1.00
3402;DHT22;1714;49.756;8.610;2024-03-23T11:59:39;9.60;1.00
3402;DHT22;1714;49.756;8.610;2024-03-23T12:10:19;9.50;1.00
3402;DHT22;1714;49.756;8.610;2024-03-23T12:20:53;9.50;1.00
3402;DHT22;1714;49.756;8.610;2024-03-23T12:31:27;9.90;1.00
3402;DHT22;1714;49.756;8.610;2024-03-23T12:42:01;9.80;1.00
3402;DHT22;1714;49.756;8.610;2024-03-23T12:52:39;9.50;1.00
3402;DHT22;1714;49.756;8.610;2024-03-23T13:03:13;8.40;1.00
3402;DHT22;1714;49.756;8.610;2024-03-23T13:13:49;8.10;1.00
3402;DHT22;1714;49.756;8.610;2024-03-23T13:24:27;7.80;1.00
3402;DHT22;1714;49.756;8.610;2024-03-23T13:35:01;8.20;1.00
3402;DHT22;1714;49.756;8.610;2024-03-23T13:45:35;9.00;1.00
3402;DHT22;1714;49.756;8.610;2024-03-23T13:56:10;9.10;1.00
3402;DHT22;1714;49.756;8.610;2024-03-23T14:06:43;9.00;1.00
3402;DHT22;1714;49.756;8.610;2024-03-23T14:17:20;9.40;1.00
3402;DHT22;1714;49.756;8.610;2024-03-23T14:27:54;8.90;1.00
3402;DHT22;1714;49.756;8.610;2024-03-23T14:38:28;9.20;1.00
3402;DHT22;1714;49.756;8.610;2024-03-23T14:49:02;9.40;1.00
3402;DHT22;1714;49.756;8.610;2024-03-23T14:59:36;8.80;1.00
3402;DHT22;1714;49.756;8.610;2024-03-23T15:10:14;8.90;1.00
3402;DHT22;1714;49.756;8.610;2024-03-23T15:21:00;8.50;1.00
3402;DHT22;1714;49.756;8.610;2024-03-23T15:31:41;8.30;1.00
3402;DHT22;1714;49.756;8.610;2024-03-23T15:42:16;7.90;1.00
3402;DHT22;1714;49.756;8.610;2024-03-23T15:52:50;8.40;1.00
3402;DHT22;1714;49.756;8.610;2024-03-23T16:03:24;7.90;1.00
3402;DHT22;1714;49.756;8.610;2024-03-23T16:13:58;8.20;1.00
3402;DHT22;1714;49.756;8.610;2024-03-23T16:24:31;8.90;1.00
3402;DHT22;1714;49.756;8.610;2024-03-23T16:35:05;8.80;1.00
3402;DHT22;1714;49.756;8.610;2024-03-23T16:45:38;8.50;1.00
3402;DHT22;1714;49.756;8.610;2024-03-23T16:56:12;8.30;1.00
3402;DHT22;1714;49.756;8.610;2024-03-23T17:06:46;7.80;1.00
3402;DHT22;1714;49.756;8.610;2024-03-23T17:17:20;7.30;1.00
3402;DHT22;1714;49.756;8.610;2024-03-23T17:27:53;7.00;1.00
3402;DHT22;1714;49.756;8.610;2024-03-23T17:38:27;7.10;1.00
3402;DHT22;1714;49.756;8.610;2024-03-23T17:49:01;7.10;1.00
3402;DHT22;1714;49.756;8.610;2024-03-23T17:59:34;7.10;1.00
3402;DHT22;1714;49.756;8.610;2024-03-23T18:10:08;6.80;1.00
3402;DHT22;1714;49.756;8.610;2024-03-23T18:20:42;6.70;1.00
3402;DHT22;1714;49.756;8.610;2024-03-23T18:31:16;6.70;1.00
3402;DHT22;1714;49.756;8.610;2024-03-23T18:41:50;6.50;1.00
3402;DHT22;1714;49.756;8.610;2024-03-23T18:52:23;6.40;1.00
3402;DHT22;1714;49.756;8.610;2024-03-23T19:02:57;6.50;1.00
3402;DHT22;1714;49.756;8.610;2024-03-23T19:13:30;6.40;1.00
3402;DHT22;1714;49.756;8.610;2024-03-23T19:24:05;6.20;1.00
3402;DHT22;1714;49.756;8.610;2024-03-23T19:34:38;5.80;1.00
3402;DHT22;1714;49.756;8.610;2024-03-23T19:45:11;5.90;1.00
3402;DHT22;1714;49.756;8.610;2024-03-23T19:55:56;5.80;1.00
3402;DHT22;1714;49.756;8.610;2024-03-23T20:06:30;5.60;1.00
3402;DHT22;1714;49.756;8.610;2024-03-23T20:17:03;5.70;1.00
3402;DHT22;1714;49.756;8.610;2024-03-23T20:27:37;5.50;1.00
3402;DHT22;1714;49.756;8.610;2024-03-23T20:38:11;5.70;1.00
3402;DHT22;1714;49.756;8.610;2024-03-23T20:48:44;5.80;1.00
3402;DHT22;1714;49.756;8.610;2024-03-23T20:59:22;5.60;1.00
3402;DHT22;1714;49.756;8.610;2024-03-23T21:09:56;5.60;1.00
3402;DHT22;1714;49.756;8.610;2024-03-23T21:20:29;5.50;1.00
3402;DHT22;1714;49.756;8.610;2024-03-23T21:31:04;5.40;1.00
3402;DHT22;1714;49.756;8.610;2024-03-23T21:41:38;5.40;1.00
3402;DHT22;1714;49.756;8.610;2024-03-23T21:52:12;5.30;1.00
3402;DHT22;1714;49.756;8.610;2024-03-23T22:02:45;5.50;1.00
3402;DHT22;1714;49.756;8.610;2024-03-23T22:13:19;5.60;1.00
3402;DHT22;1714;49.756;8.610;2024-03-23T22:23:52;5.60;1.00
3402;DHT22;1714;49.756;8.610;2024-03-23T22:34:26;5.90;1.00
3402;DHT22;1714;49.756;8.610;2024-03-23T22:45:02;5.80;1.00
3402;DHT22;1714;49.756;8.610;2024-03-23T22:55:37;5.80;1.00
3402;DHT22;1714;49.756;8.610;2024-03-23T23:06:11;5.90;1.00
3402;DHT22;1714;49.756;8.610;2024-03-23T23:16:45;5.70;1.00
3402;DHT22;1714;49.756;8.610;2024-03-23T23:27:18;5.80;1.00
3402;DHT22;1714;49.756;8.610;2024-03-23T23:37:53;5.60;1.00
3402;DHT22;1714;49.756;8.610;2024-03-23T23:48:27;5.50;1.00
3402;DHT22;1714;49.756;8.610;2024-03-23T23:59:01;5.70;1.00
